Time;durP1;ratioP1;P1;durP2;ratioP2;P2;SDS_P1;SDS_P2;PMS_P1;PMS_P2;Temp;Humidity;BMP_temperature;BMP_pressure;BME280_temperature;BME280_humidity;BME280_pressure;Samples;Min_cycle;Max_cycle;Signal;HPM_P1;HPM_P2
2022/11/01 00:01:51;;;;;;;9.27;6.73;;;14.00;99.90;;;;;;6212277;23;20641;-69
2022/11/01 00:04:17;;;;;;;8.13;7.33;;;14.00;99.90;;;;;;6224220;23;20649;-68
2022/11/01 00:06:43;;;;;;;6.83;6.27;;;14.00;99.90;;;;;;6212469;23;20182;-68
2022/11/01 00:09:09;;;;;;;8.93;7.63;;;14.00;99.90;;;;;;6212111;23;20582;-69
2022/11/01 00:11:35;;;;;;;9.40;7.00;;;14.00;99.90;;;;;;6223896;23;20166;-69
2022/11/01 00:14:00;;;;;;;11.00;6.97;;;14.00;99.90;;;;;;6224043;23;20147;-69
2022/11/01 00:16:26;;;;;;;8.17;7.37;;;14.10;99.90;;;;;;6224196;23;20193;-69
2022/11/01 00:18:52;;;;;;;8.33;7.53;;;14.10;99.90;;;;;;6223854;23;20201;-70
2022/11/01 00:21:18;;;;;;;8.67;7.07;;;14.10;99.90;;;;;;6210344;23;20189;-69
2022/11/01 00:23:44;;;;;;;8.27;7.13;;;14.20;99.90;;;;;;6222934;23;20680;-69
2022/11/01 00:26:21;;;;;;;9.00;7.33;;;14.20;99.90;;;;;;6224074;23;20143;-69
2022/11/01 00:28:47;;;;;;;7.73;6.77;;;14.20;99.90;;;;;;6223761;23;20200;-71
2022/11/01 00:31:14;;;;;;;7.90;7.20;;;14.20;99.90;;;;;;6223581;23;20528;-70
2022/11/01 00:33:41;;;;;;;7.70;7.03;;;14.20;99.90;;;;;;6223543;23;20146;-69
2022/11/01 00:36:07;;;;;;;8.70;7.17;;;14.20;99.90;;;;;;6223952;23;20544;-69
2022/11/01 00:38:33;;;;;;;7.57;6.97;;;14.20;99.90;;;;;;6212290;23;20154;-70
2022/11/01 00:40:59;;;;;;;8.20;7.30;;;14.20;99.90;;;;;;6223321;23;20190;-69
2022/11/01 00:43:24;;;;;;;7.93;7.13;;;14.20;99.90;;;;;;6223791;23;20186;-70
2022/11/01 00:45:50;;;;;;;7.50;6.80;;;14.20;99.90;;;;;;6223583;23;20253;-69
2022/11/01 00:48:16;;;;;;;10.03;7.00;;;14.20;99.90;;;;;;6212403;23;20151;-68
2022/11/01 00:50:41;;;;;;;7.53;6.83;;;14.10;99.90;;;;;;6223050;23;20249;-68
2022/11/01 00:53:09;;;;;;;8.37;6.93;;;14.10;99.90;;;;;;6221728;23;20154;-68
2022/11/01 00:55:35;;;;;;;9.97;6.87;;;14.10;99.90;;;;;;6211690;23;20174;-69
2022/11/01 00:58:01;;;;;;;7.37;6.13;;;14.10;99.90;;;;;;6224290;23;20151;-68
2022/11/01 01:00:26;;;;;;;7.40;6.70;;;14.10;99.90;;;;;;6211416;23;20178;-69
2022/11/01 01:02:52;;;;;;;9.60;6.50;;;14.10;99.90;;;;;;6223571;23;20174;-68
2022/11/01 01:05:18;;;;;;;11.37;6.97;;;14.10;99.90;;;;;;6223460;23;20157;-69
2022/11/01 01:07:43;;;;;;;10.47;6.80;;;14.10;99.90;;;;;;6223891;23;20171;-69
2022/11/01 01:10:09;;;;;;;11.53;6.70;;;14.10;99.90;;;;;;6211810;23;20314;-69
2022/11/01 01:12:35;;;;;;;8.33;6.70;;;14.10;99.90;;;;;;6223475;23;20630;-70
2022/11/01 01:15:01;;;;;;;6.77;5.90;;;14.20;99.90;;;;;;6211936;23;20213;-69
2022/11/01 01:17:27;;;;;;;7.43;6.73;;;14.30;99.90;;;;;;6223406;23;20174;-69
2022/11/01 01:19:52;;;;;;;7.37;6.67;;;14.30;99.90;;;;;;6222929;23;20564;-69
2022/11/01 01:22:18;;;;;;;8.60;6.43;;;14.40;99.90;;;;;;6223716;23;20625;-69
2022/11/01 01:24:46;;;;;;;11.37;5.97;;;14.50;99.90;;;;;;6220956;23;20204;-69
2022/11/01 01:27:16;;;;;;;7.00;6.40;;;14.60;99.90;;;;;;6223583;23;20264;-69
2022/11/01 01:29:43;;;;;;;10.27;6.33;;;14.60;99.90;;;;;;6223347;23;20142;-69
2022/11/01 01:32:12;;;;;;;7.10;6.47;;;14.60;99.90;;;;;;6211975;23;20214;-68
2022/11/01 01:34:38;;;;;;;6.33;5.73;;;14.60;99.90;;;;;;6223248;23;20143;-68
2022/11/01 01:37:04;;;;;;;7.47;6.77;;;14.60;99.90;;;;;;6223541;23;20166;-69
2022/11/01 01:39:30;;;;;;;10.37;6.67;;;14.60;99.90;;;;;;6222243;23;20527;-69
2022/11/01 01:41:55;;;;;;;8.13;6.63;;;14.60;99.90;;;;;;6223300;23;20170;-68
2022/11/01 01:44:46;;;;;;;6.77;6.17;;;14.60;99.90;;;;;;6211817;23;20151;-68
2022/11/01 01:47:26;;;;;;;7.13;5.80;;;14.60;99.90;;;;;;6223407;23;20201;-68
2022/11/01 01:50:01;;;;;;;7.07;5.80;;;14.60;99.90;;;;;;6211475;23;20157;-68
2022/11/01 01:52:30;;;;;;;6.87;6.23;;;14.60;99.90;;;;;;6222956;23;20245;-68
2022/11/01 01:54:57;;;;;;;6.67;6.07;;;14.60;99.90;;;;;;6224915;23;20248;-67
2022/11/01 01:57:23;;;;;;;12.53;7.03;;;14.60;99.90;;;;;;6223185;23;20154;-68
2022/11/01 01:59:51;;;;;;;7.37;6.67;;;14.60;99.90;;;;;;6224764;23;20171;-68
2022/11/01 02:02:17;;;;;;;6.80;5.97;;;14.70;99.90;;;;;;6213596;23;20664;-69
2022/11/01 02:04:49;;;;;;;9.80;6.17;;;14.70;99.90;;;;;;6225140;23;20618;-68
2022/11/01 02:07:15;;;;;;;7.00;6.17;;;14.70;99.90;;;;;;6225201;23;20131;-68
2022/11/01 02:09:42;;;;;;;8.43;5.90;;;14.70;99.90;;;;;;6213096;23;20151;-69
2022/11/01 02:12:10;;;;;;;7.63;5.83;;;14.70;99.90;;;;;;6225691;23;20198;-68
2022/11/01 02:14:36;;;;;;;5.73;5.33;;;14.70;99.90;;;;;;6213398;23;20154;-68
2022/11/01 02:17:13;;;;;;;8.60;5.90;;;14.80;99.90;;;;;;6224974;23;20147;-69
2022/11/01 02:20:00;;;;;;;6.83;5.30;;;14.80;99.90;;;;;;6224700;23;20180;-69
2022/11/01 02:22:38;;;;;;;5.37;5.07;;;14.80;99.90;;;;;;6213680;23;20569;-69
2022/11/01 02:25:42;;;;;;;6.00;5.37;;;14.90;99.90;;;;;;6213520;23;20602;-68
2022/11/01 02:28:32;;;;;;;5.40;4.93;;;15.00;99.90;;;;;;6222891;23;20150;-70
2022/11/01 02:31:16;;;;;;;6.03;5.07;;;15.10;99.90;;;;;;6224332;23;20183;-70
2022/11/01 02:33:53;;;;;;;5.10;4.63;;;15.20;99.90;;;;;;6224749;23;20595;-70
2022/11/01 02:36:47;;;;;;;5.90;5.50;;;15.20;99.90;;;;;;6224823;23;20633;-70
2022/11/01 02:39:21;;;;;;;5.60;5.10;;;15.30;99.90;;;;;;6224860;23;20205;-70
2022/11/01 02:41:59;;;;;;;5.50;5.00;;;15.40;99.90;;;;;;6212789;23;20183;-70
2022/11/01 02:44:30;;;;;;;6.03;5.43;;;15.50;99.90;;;;;;6213193;23;20186;-70
2022/11/01 02:47:00;;;;;;;6.63;6.17;;;15.50;99.90;;;;;;6225068;23;20174;-70
2022/11/01 02:49:34;;;;;;;5.53;5.10;;;15.50;99.90;;;;;;6224621;23;20502;-70
2022/11/01 02:52:01;;;;;;;6.73;5.93;;;15.50;99.90;;;;;;6213129;23;20543;-70
2022/11/01 02:54:32;;;;;;;5.40;4.90;;;15.50;99.90;;;;;;6224723;23;20222;-70
2022/11/01 02:57:16;;;;;;;6.13;5.63;;;15.40;99.90;;;;;;6224884;23;20143;-69
2022/11/01 02:59:47;;;;;;;6.00;5.60;;;15.50;99.90;;;;;;6221824;23;20210;-69
2022/11/01 03:02:40;;;;;;;4.77;4.50;;;15.50;99.90;;;;;;6213062;23;20194;-69
2022/11/01 03:05:22;;;;;;;5.47;5.10;;;15.50;99.90;;;;;;6200498;23;20181;-69
2022/11/01 03:07:56;;;;;;;6.20;5.60;;;15.50;99.90;;;;;;6224483;23;20571;-70
2022/11/01 03:10:27;;;;;;;6.07;5.63;;;15.50;99.90;;;;;;6225691;23;20147;-70
2022/11/01 03:13:12;;;;;;;7.10;6.40;;;15.50;99.90;;;;;;6216097;23;20147;-71
2022/11/01 03:15:44;;;;;;;10.80;6.40;;;15.50;99.90;;;;;;6227439;23;20139;-69
2022/11/01 03:18:17;;;;;;;8.27;5.80;;;15.50;99.90;;;;;;6224992;23;20154;-69
2022/11/01 03:20:58;;;;;;;8.83;5.27;;;15.50;99.90;;;;;;6224222;23;20182;-69
2022/11/01 03:23:39;;;;;;;8.53;5.10;;;15.60;99.90;;;;;;6224935;23;20448;-68
2022/11/01 03:26:07;;;;;;;5.60;5.20;;;15.60;99.90;;;;;;6212948;23;20650;-69
2022/11/01 03:28:41;;;;;;;7.03;6.40;;;15.60;99.90;;;;;;6212806;23;20223;-69
2022/11/01 03:31:14;;;;;;;7.07;6.13;;;15.60;99.90;;;;;;6221996;22;20525;-69
2022/11/01 03:33:49;;;;;;;6.43;6.00;;;15.60;99.90;;;;;;6224628;23;20230;-69
2022/11/01 03:36:18;;;;;;;6.73;6.13;;;15.60;99.90;;;;;;6224365;23;20575;-69
2022/11/01 03:38:52;;;;;;;7.73;5.73;;;15.70;99.90;;;;;;6224591;23;20591;-69
2022/11/01 03:41:22;;;;;;;5.60;5.07;;;15.70;99.90;;;;;;6223944;23;20253;-69
2022/11/01 03:43:47;;;;;;;5.93;5.13;;;15.70;99.90;;;;;;6224231;23;20143;-68
2022/11/01 03:46:14;;;;;;;5.43;5.10;;;15.70;99.90;;;;;;6224233;23;20173;-69
2022/11/01 03:48:40;;;;;;;6.67;5.47;;;15.70;99.90;;;;;;6224212;23;20147;-69
2022/11/01 03:51:06;;;;;;;7.80;5.47;;;15.70;99.90;;;;;;6212264;23;20691;-69
2022/11/01 03:53:32;;;;;;;6.07;5.57;;;15.70;99.90;;;;;;6224785;23;20155;-69
2022/11/01 03:55:58;;;;;;;5.47;4.77;;;15.80;99.90;;;;;;6212310;23;20633;-69
2022/11/01 03:58:24;;;;;;;5.60;5.13;;;15.80;99.90;;;;;;6224303;23;20151;-69
2022/11/01 04:00:49;;;;;;;5.37;4.87;;;15.80;99.90;;;;;;6223343;23;20206;-69
2022/11/01 04:03:15;;;;;;;5.00;4.60;;;15.80;99.90;;;;;;6222291;23;20154;-69
2022/11/01 04:05:41;;;;;;;6.23;5.73;;;15.80;99.90;;;;;;6223915;23;20618;-69
2022/11/01 04:08:09;;;;;;;6.50;5.90;;;15.80;99.90;;;;;;6224150;23;20147;-69
2022/11/01 04:10:34;;;;;;;5.93;5.53;;;15.70;99.90;;;;;;6223376;23;20201;-69
2022/11/01 04:13:00;;;;;;;6.07;5.57;;;15.80;99.90;;;;;;6212726;23;20151;-69
2022/11/01 04:21:03;;;;;;;4.70;4.40;;;15.70;99.90;;;;;;6223605;23;20270;-69
2022/11/01 04:23:29;;;;;;;5.30;4.83;;;15.70;99.90;;;;;;6223794;23;20207;-69
2022/11/01 04:25:55;;;;;;;5.77;5.37;;;15.80;99.90;;;;;;6223913;23;20217;-68
2022/11/01 04:28:20;;;;;;;4.73;4.40;;;15.90;99.90;;;;;;6223904;23;20170;-68
2022/11/01 04:30:46;;;;;;;6.33;5.80;;;16.00;99.90;;;;;;6223513;23;20241;-69
2022/11/01 04:33:12;;;;;;;5.33;4.93;;;16.00;99.90;;;;;;6211883;23;20154;-69
2022/11/01 04:35:38;;;;;;;5.73;5.30;;;16.00;99.90;;;;;;6221480;23;20483;-69
2022/11/01 04:38:04;;;;;;;5.57;5.17;;;16.10;99.90;;;;;;6212448;23;20224;-69
2022/11/01 04:40:31;;;;;;;6.13;4.73;;;16.10;99.90;;;;;;6223266;23;20182;-68
2022/11/01 04:42:57;;;;;;;4.80;4.50;;;16.10;99.90;;;;;;6223595;23;20360;-68
2022/11/01 04:45:23;;;;;;;4.77;4.50;;;16.20;99.90;;;;;;6212133;23;20154;-69
2022/11/01 04:48:12;;;;;;;12.70;5.53;;;16.20;99.90;;;;;;6223816;23;20468;-69
2022/11/01 04:50:39;;;;;;;5.20;4.70;;;16.20;99.90;;;;;;6223266;23;20174;-69
2022/11/01 04:53:05;;;;;;;6.43;4.20;;;16.10;99.90;;;;;;6223683;23;20147;-69
2022/11/01 04:55:31;;;;;;;5.47;4.83;;;16.10;99.90;;;;;;6223755;23;20154;-69
2022/11/01 04:57:57;;;;;;;5.00;4.70;;;16.10;99.90;;;;;;6223585;23;20147;-69
2022/11/01 05:00:23;;;;;;;7.53;4.60;;;16.00;99.90;;;;;;6223301;23;20703;-69
2022/11/01 05:02:49;;;;;;;6.53;5.93;;;16.00;99.90;;;;;;6223387;23;20217;-69
2022/11/01 05:05:15;;;;;;;5.33;4.87;;;16.00;99.90;;;;;;6221728;23;20626;-69
2022/11/01 05:07:40;;;;;;;5.03;4.60;;;16.00;99.90;;;;;;6211783;23;20154;-69
2022/11/01 05:10:07;;;;;;;5.90;5.47;;;15.90;99.90;;;;;;6223278;23;20603;-69
2022/11/01 05:12:33;;;;;;;6.37;5.87;;;16.00;99.90;;;;;;6212017;23;20202;-69
2022/11/01 05:14:59;;;;;;;5.33;4.87;;;16.00;99.90;;;;;;6224258;23;20158;-69
2022/11/01 05:17:24;;;;;;;5.03;4.53;;;16.00;99.90;;;;;;6223507;23;20154;-69
2022/11/01 05:19:50;;;;;;;5.30;5.00;;;16.00;99.90;;;;;;6211712;23;20602;-69
2022/11/01 05:22:16;;;;;;;5.70;5.40;;;16.00;99.90;;;;;;6211582;23;20648;-69
2022/11/01 05:24:42;;;;;;;5.53;5.10;;;16.00;99.90;;;;;;6213227;23;20171;-70
2022/11/01 05:27:08;;;;;;;4.50;4.20;;;16.00;99.90;;;;;;6211792;23;20150;-69
2022/11/01 05:29:33;;;;;;;6.87;4.70;;;16.10;99.90;;;;;;6212222;23;20551;-69
2022/11/01 05:31:59;;;;;;;5.00;4.60;;;16.20;99.90;;;;;;6224901;23;20183;-69
2022/11/01 05:34:25;;;;;;;5.03;4.63;;;16.20;99.90;;;;;;6225738;23;20152;-69
2022/11/01 05:36:50;;;;;;;8.43;5.03;;;16.30;99.90;;;;;;6223079;23;20151;-70
2022/11/01 05:39:16;;;;;;;5.03;4.63;;;16.40;99.90;;;;;;6225308;23;20150;-69
2022/11/01 05:41:41;;;;;;;5.20;4.53;;;16.50;99.90;;;;;;6213773;23;20265;-69
2022/11/01 05:44:07;;;;;;;4.80;4.50;;;16.50;99.90;;;;;;6225468;23;20143;-69
2022/11/01 05:46:33;;;;;;;7.53;4.30;;;16.50;99.90;;;;;;6213832;23;20151;-68
2022/11/01 05:48:58;;;;;;;4.63;4.23;;;16.50;99.90;;;;;;6213998;23;20542;-69
2022/11/01 05:51:24;;;;;;;5.43;4.97;;;16.50;99.90;;;;;;6213498;23;20178;-68
2022/11/01 05:53:50;;;;;;;4.80;4.40;;;16.50;99.90;;;;;;6213805;23;20169;-69
2022/11/01 05:56:17;;;;;;;5.13;4.60;;;16.50;99.90;;;;;;6213751;23;20690;-69
2022/11/01 05:58:42;;;;;;;4.13;3.83;;;16.40;99.90;;;;;;6213869;23;20178;-69
2022/11/01 06:01:08;;;;;;;4.30;4.00;;;16.40;99.90;;;;;;6224968;23;20178;-70
2022/11/01 06:03:35;;;;;;;4.97;4.53;;;16.30;99.90;;;;;;6225039;23;20159;-69
2022/11/01 06:06:00;;;;;;;4.20;3.97;;;16.30;99.90;;;;;;6225249;23;20151;-69
2022/11/01 06:08:26;;;;;;;4.67;4.27;;;16.30;99.90;;;;;;6223021;23;20150;-69
2022/11/01 06:10:59;;;;;;;4.23;4.03;;;16.20;99.90;;;;;;6224587;23;20170;-69
2022/11/01 06:13:24;;;;;;;5.47;4.33;;;16.10;99.90;;;;;;6225167;23;20135;-70
2022/11/01 06:15:57;;;;;;;4.37;4.07;;;16.10;99.90;;;;;;6225094;23;20628;-69
2022/11/01 06:18:23;;;;;;;5.73;4.93;;;16.10;99.90;;;;;;6225596;23;20183;-69
2022/11/01 06:20:49;;;;;;;6.70;4.03;;;16.00;99.90;;;;;;6213274;23;20186;-69
2022/11/01 06:23:14;;;;;;;6.57;6.00;;;16.00;99.90;;;;;;6225277;23;20150;-68
2022/11/01 06:25:40;;;;;;;4.10;3.90;;;16.00;99.90;;;;;;6224747;23;20178;-67
2022/11/01 06:28:05;;;;;;;4.63;3.83;;;16.10;99.90;;;;;;6225128;23;20163;-68
2022/11/01 06:30:31;;;;;;;4.70;4.17;;;16.10;99.90;;;;;;6223693;23;20178;-68
2022/11/01 06:33:00;;;;;;;9.87;4.70;;;16.00;99.90;;;;;;6213386;23;20139;-68
2022/11/01 06:35:27;;;;;;;5.00;4.70;;;16.00;99.90;;;;;;6213187;23;20154;-67
2022/11/01 06:38:05;;;;;;;4.73;4.43;;;15.90;99.90;;;;;;6224856;23;20146;-68
2022/11/01 06:40:32;;;;;;;4.50;4.20;;;15.80;99.90;;;;;;6221818;23;20183;-67
2022/11/01 06:42:59;;;;;;;6.07;4.20;;;15.70;99.90;;;;;;6224646;23;20165;-67
2022/11/01 06:45:25;;;;;;;4.27;4.00;;;15.60;99.90;;;;;;6224835;23;20537;-67
2022/11/01 06:47:50;;;;;;;3.80;3.60;;;15.50;99.90;;;;;;6213428;23;20151;-66
2022/11/01 06:50:16;;;;;;;4.43;4.10;;;15.40;99.90;;;;;;6224466;23;20158;-66
2022/11/01 06:52:42;;;;;;;3.90;3.70;;;15.30;99.90;;;;;;6224764;23;20155;-67
2022/11/01 06:55:07;;;;;;;4.53;4.27;;;15.10;99.90;;;;;;6224576;23;20154;-67
2022/11/01 06:57:33;;;;;;;4.60;4.20;;;15.00;99.90;;;;;;6213206;23;20217;-67
2022/11/01 06:59:58;;;;;;;4.03;3.83;;;14.80;99.90;;;;;;6224944;23;20229;-66
2022/11/01 07:02:24;;;;;;;5.00;4.23;;;14.80;99.90;;;;;;6228456;23;20233;-67
2022/11/01 07:04:50;;;;;;;4.33;3.80;;;14.70;99.90;;;;;;6228099;23;20192;-66
2022/11/01 07:07:16;;;;;;;4.33;3.97;;;14.80;99.90;;;;;;6225312;23;20147;-67
2022/11/01 07:09:42;;;;;;;4.60;4.40;;;14.90;99.90;;;;;;6224639;23;20166;-68
2022/11/01 07:12:08;;;;;;;3.40;3.30;;;14.90;99.90;;;;;;6212879;23;20565;-68
2022/11/01 07:14:33;;;;;;;4.37;3.97;;;14.90;99.90;;;;;;6224537;23;20652;-68
2022/11/01 07:16:59;;;;;;;4.80;4.50;;;15.00;99.90;;;;;;6224489;23;20147;-68
2022/11/01 07:19:24;;;;;;;3.90;3.70;;;15.00;99.90;;;;;;6212925;23;20155;-69
2022/11/01 07:21:50;;;;;;;3.63;3.40;;;14.90;99.90;;;;;;6225309;23;20179;-67
2022/11/01 07:24:15;;;;;;;3.97;3.77;;;14.90;99.90;;;;;;6224543;23;20297;-68
2022/11/01 07:26:41;;;;;;;4.10;3.90;;;14.80;99.90;;;;;;6212582;23;20155;-66
2022/11/01 07:29:06;;;;;;;4.40;4.20;;;14.70;99.90;;;;;;6224339;23;20491;-67
2022/11/01 07:31:32;;;;;;;4.30;3.90;;;14.70;99.90;;;;;;6224178;23;20229;-67
2022/11/01 07:33:58;;;;;;;3.97;3.77;;;14.60;99.90;;;;;;6212937;23;20237;-67
2022/11/01 07:36:24;;;;;;;4.10;3.90;;;14.60;99.90;;;;;;6224507;23;20230;-68
2022/11/01 07:38:49;;;;;;;4.00;3.70;;;14.60;99.90;;;;;;6223570;23;20158;-68
2022/11/01 07:41:15;;;;;;;6.70;6.40;;;14.60;99.90;;;;;;6212150;23;20198;-68
2022/11/01 07:43:41;;;;;;;3.60;3.40;;;14.70;99.90;;;;;;6212593;23;20155;-68
2022/11/01 07:46:06;;;;;;;4.17;3.50;;;14.90;99.90;;;;;;6224409;23;20151;-67
2022/11/01 07:48:35;;;;;;;5.93;3.87;;;15.10;99.90;;;;;;6224903;23;20153;-68
2022/11/01 07:51:03;;;;;;;3.53;3.30;;;15.40;99.90;;;;;;6223396;23;20281;-69
2022/11/01 07:53:29;;;;;;;3.00;2.80;;;15.60;99.90;;;;;;6224123;23;20491;-67
2022/11/01 07:55:54;;;;;;;4.60;2.90;;;15.90;99.90;;;;;;6224206;23;20147;-67
2022/11/01 07:58:20;;;;;;;3.70;3.40;;;16.10;99.90;;;;;;6224185;23;20159;-68
2022/11/01 08:00:46;;;;;;;3.50;3.10;;;16.20;99.90;;;;;;6223654;23;20255;-68
2022/11/01 08:03:16;;;;;;;5.07;2.93;;;16.40;99.90;;;;;;6224062;23;20458;-67
2022/11/01 08:05:43;;;;;;;3.97;3.30;;;16.40;99.90;;;;;;6212370;23;20169;-67
2022/11/01 08:08:09;;;;;;;4.13;3.13;;;16.60;99.90;;;;;;6224298;23;20179;-68
2022/11/01 08:10:36;;;;;;;3.20;3.00;;;16.80;99.90;;;;;;6223620;23;20174;-67
2022/11/01 08:13:07;;;;;;;3.57;3.30;;;16.90;99.90;;;;;;6223875;23;20147;-68
2022/11/01 08:15:33;;;;;;;3.23;2.87;;;16.90;99.90;;;;;;6223874;23;20218;-69
2022/11/01 08:17:59;;;;;;;3.20;2.90;;;17.00;99.90;;;;;;6224050;23;20236;-67
2022/11/01 08:20:26;;;;;;;3.47;3.20;;;17.00;99.90;;;;;;6223785;23;20253;-67
2022/11/01 08:22:52;;;;;;;3.30;3.07;;;17.20;99.90;;;;;;6223862;23;20153;-68
2022/11/01 08:25:18;;;;;;;6.07;3.20;;;17.30;99.90;;;;;;6223759;23;20139;-67
2022/11/01 08:27:44;;;;;;;4.90;3.07;;;17.40;99.90;;;;;;6224133;23;20150;-68
2022/11/01 08:30:10;;;;;;;4.60;2.97;;;17.30;99.90;;;;;;6211102;23;20237;-68
2022/11/01 08:32:36;;;;;;;3.43;3.23;;;17.40;99.90;;;;;;6223875;23;20167;-68
2022/11/01 08:35:02;;;;;;;4.87;3.00;;;17.40;99.90;;;;;;6223834;23;20261;-68
2022/11/01 08:37:27;;;;;;;4.63;3.10;;;17.50;99.90;;;;;;6223739;23;20246;-68
2022/11/01 08:39:53;;;;;;;3.97;3.10;;;17.50;99.90;;;;;;6211726;23;20162;-67
2022/11/01 08:42:19;;;;;;;3.33;3.00;;;17.60;99.90;;;;;;6223529;23;20167;-67
2022/11/01 08:44:45;;;;;;;3.10;2.90;;;17.60;99.90;;;;;;6223973;23;20178;-68
2022/11/01 08:47:11;;;;;;;3.13;2.93;;;17.40;99.90;;;;;;6223607;23;20214;-67
2022/11/01 08:49:36;;;;;;;4.07;2.90;;;17.40;99.90;;;;;;6223656;23;20234;-67
2022/11/01 08:52:02;;;;;;;3.97;3.40;;;17.20;99.90;;;;;;6211940;23;20225;-67
2022/11/01 08:54:29;;;;;;;4.77;2.90;;;17.30;99.90;;;;;;6223443;23;20181;-69
2022/11/01 08:56:55;;;;;;;3.20;3.00;;;17.30;99.90;;;;;;6223494;23;20209;-67
2022/11/01 08:59:21;;;;;;;3.13;2.93;;;17.70;99.90;;;;;;6223276;23;20151;-67
2022/11/01 09:01:46;;;;;;;3.23;3.03;;;18.20;99.90;;;;;;6223320;23;20185;-67
2022/11/01 09:04:13;;;;;;;5.33;2.83;;;18.40;99.90;;;;;;6211488;23;20150;-67
2022/11/01 09:06:38;;;;;;;3.33;2.73;;;18.10;99.90;;;;;;6212239;23;20250;-67
2022/11/01 09:09:04;;;;;;;4.93;2.80;;;18.20;99.90;;;;;;6211661;23;20178;-66
2022/11/01 09:11:30;;;;;;;7.17;2.70;;;18.50;99.90;;;;;;6223590;23;20175;-67
2022/11/01 09:13:56;;;;;;;2.77;2.67;;;18.60;99.90;;;;;;6223255;23;20155;-67
2022/11/01 09:16:23;;;;;;;3.03;2.80;;;18.60;99.90;;;;;;6223787;23;20234;-67
2022/11/01 09:18:48;;;;;;;3.43;3.10;;;18.40;99.90;;;;;;6211553;23;20486;-67
2022/11/01 09:21:15;;;;;;;3.50;3.20;;;18.30;99.90;;;;;;6223183;23;20206;-67
2022/11/01 09:23:41;;;;;;;7.50;2.70;;;18.50;99.90;;;;;;6213485;23;20174;-66
2022/11/01 09:26:09;;;;;;;3.77;2.80;;;18.60;99.90;;;;;;6223220;23;20601;-68
2022/11/01 09:28:36;;;;;;;3.10;2.90;;;18.80;99.90;;;;;;6223176;23;20358;-69
2022/11/01 09:31:06;;;;;;;3.00;2.70;;;19.20;99.90;;;;;;6222422;22;20663;-68
2022/11/01 09:33:32;;;;;;;3.70;3.40;;;19.30;99.90;;;;;;6223765;23;20139;-68
2022/11/01 09:35:58;;;;;;;3.70;3.30;;;19.30;99.90;;;;;;6223418;23;20165;-69
2022/11/01 09:38:24;;;;;;;4.23;2.80;;;19.30;99.90;;;;;;6223312;23;20143;-68
2022/11/01 09:41:06;;;;;;;3.30;3.00;;;19.50;99.90;;;;;;6222880;23;20179;-68
2022/11/01 09:43:36;;;;;;;4.40;3.00;;;19.40;99.90;;;;;;6211703;23;20154;-67
2022/11/01 09:46:04;;;;;;;4.67;3.10;;;19.40;99.90;;;;;;6223979;23;20147;-68
2022/11/01 09:48:33;;;;;;;5.10;3.00;;;19.10;99.90;;;;;;6211862;23;20155;-68
2022/11/01 09:51:16;;;;;;;3.10;2.90;;;19.20;99.90;;;;;;6211822;23;20259;-68
2022/11/01 09:53:42;;;;;;;6.00;2.97;;;19.00;99.90;;;;;;6212213;23;20151;-69
2022/11/01 09:56:21;;;;;;;3.00;2.80;;;19.10;99.90;;;;;;6209683;23;20155;-68
2022/11/01 09:59:02;;;;;;;4.80;3.20;;;18.90;99.90;;;;;;6211218;23;20150;-68
2022/11/01 10:01:57;;;;;;;6.07;2.77;;;18.90;99.90;;;;;;6222168;23;20265;-68
2022/11/01 10:05:04;;;;;;;2.90;2.70;;;18.80;99.90;;;;;;6223166;23;20151;-67
2022/11/01 10:07:53;;;;;;;2.90;2.53;;;18.90;99.90;;;;;;6127929;23;20239;-66
2022/11/01 10:10:28;;;;;;;8.20;4.03;;;18.80;99.90;;;;;;6130437;23;20204;-67
2022/11/01 10:12:59;;;;;;;3.63;3.00;;;18.60;99.90;;;;;;6193396;23;20564;-67
2022/11/01 10:15:37;;;;;;;6.80;3.70;;;18.60;99.90;;;;;;6212638;23;20154;-67
2022/11/01 10:18:36;;;;;;;3.83;3.50;;;18.60;99.90;;;;;;6213522;23;20610;-67
2022/11/01 10:21:08;;;;;;;4.17;3.60;;;18.90;99.90;;;;;;6207334;23;20190;-68
2022/11/01 10:23:41;;;;;;;3.10;2.90;;;19.00;99.90;;;;;;6213350;23;20139;-68
2022/11/01 10:26:11;;;;;;;4.70;3.33;;;19.00;99.90;;;;;;6225266;23;20132;-68
2022/11/01 10:29:07;;;;;;;3.67;2.90;;;18.90;99.90;;;;;;6213370;23;20159;-68
2022/11/01 10:31:40;;;;;;;2.90;2.70;;;19.00;99.90;;;;;;6189080;23;20273;-67
2022/11/01 10:34:20;;;;;;;10.13;3.77;;;19.00;99.90;;;;;;6225202;23;20151;-68
2022/11/01 10:36:46;;;;;;;3.10;2.90;;;19.00;99.90;;;;;;6213579;23;20139;-68
2022/11/01 10:39:30;;;;;;;3.30;2.87;;;19.20;99.90;;;;;;6224947;23;20158;-67
2022/11/01 10:41:57;;;;;;;3.77;3.13;;;19.40;99.90;;;;;;6224766;23;20258;-68
2022/11/01 10:44:31;;;;;;;4.43;3.23;;;19.20;99.90;;;;;;6225378;23;20171;-68
2022/11/01 10:46:59;;;;;;;3.40;3.00;;;19.30;99.90;;;;;;6225218;23;20185;-68
2022/11/01 10:49:32;;;;;;;3.20;3.00;;;19.50;99.90;;;;;;6213226;23;20157;-68
2022/11/01 10:52:05;;;;;;;3.80;2.90;;;19.70;99.90;;;;;;6213110;23;20174;-68
2022/11/01 10:54:36;;;;;;;3.60;3.30;;;20.10;99.90;;;;;;6225494;23;20142;-67
2022/11/01 10:57:07;;;;;;;3.20;3.00;;;20.20;99.90;;;;;;6224351;23;20138;-67
2022/11/01 10:59:37;;;;;;;3.55;3.03;;;20.50;99.90;;;;;;6224416;23;20139;-68
2022/11/01 11:02:18;;;;;;;5.38;2.90;;;20.70;99.90;;;;;;6212722;23;20689;-68
2022/11/01 11:04:44;;;;;;;3.45;2.80;;;20.70;99.90;;;;;;6213283;23;20230;-67
2022/11/01 11:07:13;;;;;;;3.78;3.28;;;20.80;99.90;;;;;;6224655;23;20201;-67
2022/11/01 11:09:39;;;;;;;3.73;3.43;;;20.90;99.90;;;;;;6212974;23;20157;-68
2022/11/01 11:12:19;;;;;;;3.38;3.10;;;21.10;99.90;;;;;;6224434;23;20262;-69
2022/11/01 11:14:49;;;;;;;3.72;3.45;;;21.20;99.90;;;;;;6212816;23;20548;-67
2022/11/01 11:17:28;;;;;;;3.50;3.20;;;21.10;99.90;;;;;;6224628;23;20151;-67
2022/11/01 11:19:59;;;;;;;3.13;2.87;;;20.90;99.90;;;;;;6224052;23;20138;-68
2022/11/01 11:22:25;;;;;;;2.93;2.73;;;20.70;99.90;;;;;;6224398;23;20765;-68
2022/11/01 11:24:57;;;;;;;2.93;2.73;;;20.80;99.90;;;;;;6212657;23;20147;-68
2022/11/01 11:27:28;;;;;;;3.47;3.10;;;20.90;99.90;;;;;;6212394;23;20182;-67
2022/11/01 11:30:06;;;;;;;4.03;2.95;;;20.90;99.90;;;;;;6222479;23;20162;-67
2022/11/01 11:32:34;;;;;;;7.07;3.33;;;21.10;99.90;;;;;;6187433;23;20181;-69
2022/11/01 11:35:05;;;;;;;3.13;2.83;;;20.80;99.90;;;;;;6224750;23;20430;-68
2022/11/01 11:37:33;;;;;;;3.40;2.80;;;20.70;99.90;;;;;;6187524;23;20150;-68
2022/11/01 11:40:11;;;;;;;3.33;2.90;;;20.80;99.90;;;;;;6223806;23;20146;-68
2022/11/01 11:42:37;;;;;;;5.03;3.20;;;20.80;99.90;;;;;;6224672;23;20134;-68
2022/11/01 11:45:20;;;;;;;6.40;2.97;;;20.80;99.90;;;;;;6222350;23;20154;-67
2022/11/01 11:47:46;;;;;;;3.33;3.00;;;20.70;99.90;;;;;;6224281;23;20170;-66
2022/11/01 11:50:32;;;;;;;5.20;3.03;;;20.80;99.90;;;;;;6223590;23;20202;-66
2022/11/01 11:53:14;;;;;;;7.77;3.00;;;20.80;99.90;;;;;;6187136;23;20143;-67
2022/11/01 11:55:44;;;;;;;3.70;3.40;;;20.90;99.90;;;;;;6224024;23;20500;-67
2022/11/01 11:58:34;;;;;;;3.92;2.80;;;20.80;99.90;;;;;;6187469;23;20604;-67
2022/11/01 12:01:04;;;;;;;6.23;4.20;;;20.80;99.90;;;;;;6223748;23;20716;-67
2022/11/01 12:03:44;;;;;;;3.33;3.03;;;20.70;99.90;;;;;;6224069;23;20143;-66
2022/11/01 12:06:18;;;;;;;3.27;2.97;;;20.70;99.90;;;;;;6224070;23;20186;-67
2022/11/01 12:08:55;;;;;;;6.63;3.30;;;20.60;99.90;;;;;;6187332;23;20146;-66
2022/11/01 12:11:23;;;;;;;5.20;3.27;;;20.60;99.90;;;;;;6224056;23;20553;-66
2022/11/01 12:14:02;;;;;;;3.17;3.00;;;20.50;99.90;;;;;;6223653;23;20197;-67
2022/11/01 12:16:28;;;;;;;6.70;3.00;;;20.40;99.90;;;;;;6185858;23;20536;-67
2022/11/01 12:19:02;;;;;;;3.17;2.97;;;20.40;99.90;;;;;;6223699;23;20155;-66
2022/11/01 12:21:33;;;;;;;3.40;3.10;;;20.20;99.90;;;;;;6186699;23;20245;-66
2022/11/01 12:24:27;;;;;;;3.50;3.20;;;20.30;99.90;;;;;;6223714;23;20706;-66
2022/11/01 12:26:56;;;;;;;11.23;3.83;;;20.30;99.90;;;;;;6202475;23;20607;-66
2022/11/01 12:29:36;;;;;;;4.27;3.37;;;20.50;99.90;;;;;;6222966;23;20150;-66
2022/11/01 12:32:27;;;;;;;3.77;3.47;;;20.60;99.90;;;;;;6211824;23;20552;-66
2022/11/01 12:34:57;;;;;;;4.10;3.53;;;20.50;99.90;;;;;;6254168;23;20482;-68
2022/11/01 12:37:57;;;;;;;3.10;2.90;;;20.40;99.90;;;;;;6254240;23;20641;-66
2022/11/01 12:40:32;;;;;;;5.13;3.30;;;20.50;99.90;;;;;;6207390;22;20625;-68
2022/11/01 12:43:01;;;;;;;3.30;3.07;;;20.50;99.90;;;;;;6253981;23;20158;-68
2022/11/01 12:45:57;;;;;;;3.50;3.20;;;20.60;99.90;;;;;;6216760;23;20212;-68
2022/11/01 12:48:32;;;;;;;3.50;3.20;;;20.50;99.90;;;;;;6215453;23;20139;-66
2022/11/01 12:51:04;;;;;;;4.93;3.10;;;20.50;99.90;;;;;;6253801;22;20547;-68
2022/11/01 12:53:38;;;;;;;3.03;2.83;;;20.60;99.90;;;;;;6217399;23;20147;-67
2022/11/01 12:56:04;;;;;;;4.10;3.00;;;20.50;99.90;;;;;;6254228;23;20465;-67
2022/11/01 12:58:30;;;;;;;7.43;3.23;;;20.50;99.90;;;;;;6254101;23;20248;-67
2022/11/01 13:01:13;;;;;;;3.20;3.00;;;20.60;99.90;;;;;;6253530;22;20597;-66
2022/11/01 13:04:05;;;;;;;3.27;3.07;;;20.80;99.90;;;;;;6253806;23;20224;-67
2022/11/01 13:06:54;;;;;;;3.40;3.10;;;20.70;99.90;;;;;;6254486;23;20139;-67